createdAt,value
2022-12-31T00:01:58.395Z,72.77
2022-12-31T00:04:31.008Z,72.58
2022-12-31T00:07:03.529Z,72.48
2022-12-31T00:09:38.900Z,72.55
2022-12-31T00:12:11.618Z,72.62
2022-12-31T00:14:44.101Z,72.62
2022-12-31T00:17:16.556Z,72.63
2022-12-31T00:19:49.582Z,72.59
2022-12-31T00:22:22.829Z,72.46
2022-12-31T00:24:55.312Z,72.47
2022-12-31T00:27:27.861Z,72.40
2022-12-31T00:30:04.665Z,72.27
2022-12-31T00:32:37.580Z,72.37
2022-12-31T00:35:14.174Z,72.52
2022-12-31T00:37:46.757Z,72.60
2022-12-31T00:40:19.399Z,72.50
2022-12-31T00:42:51.933Z,72.35
2022-12-31T00:45:25.439Z,72.16
2022-12-31T00:47:57.976Z,72.21
2022-12-31T00:50:30.604Z,72.65
2022-12-31T00:53:03.068Z,72.73
2022-12-31T00:55:35.623Z,72.87
2022-12-31T00:58:09.280Z,73.18
2022-12-31T01:00:43.097Z,73.44
2022-12-31T01:03:15.792Z,73.56
2022-12-31T01:05:48.376Z,73.51
2022-12-31T01:08:21.272Z,73.52
2022-12-31T01:11:11.174Z,73.68
2022-12-31T01:13:43.669Z,73.56
2022-12-31T01:16:18.139Z,73.59
2022-12-31T01:18:51.797Z,73.57
2022-12-31T01:21:25.927Z,73.60
2022-12-31T01:23:58.951Z,73.66
2022-12-31T01:26:32.059Z,73.68
2022-12-31T01:29:05.038Z,73.54
2022-12-31T01:31:39.037Z,73.66
2022-12-31T01:34:12.965Z,73.89
2022-12-31T01:36:45.485Z,73.85
2022-12-31T01:39:18.004Z,73.80
2022-12-31T01:41:50.999Z,74.01
2022-12-31T01:45:00.194Z,74.05
2022-12-31T01:47:40.628Z,74.05
2022-12-31T01:50:19.652Z,74.03
2022-12-31T01:52:56.076Z,74.07
2022-12-31T01:55:34.575Z,74.05
2022-12-31T01:58:11.564Z,73.97
2022-12-31T02:00:46.798Z,73.80
2022-12-31T02:03:19.962Z,73.57
2022-12-31T02:05:59.147Z,73.46
2022-12-31T02:08:34.609Z,73.44
2022-12-31T02:11:29.230Z,73.49
2022-12-31T02:14:05.395Z,73.50
2022-12-31T02:16:47.979Z,73.64
2022-12-31T02:19:57.580Z,73.77
2022-12-31T02:22:49.335Z,73.79
2022-12-31T02:25:48.238Z,73.77
2022-12-31T02:28:37.059Z,73.71
2022-12-31T02:31:16.730Z,73.62
2022-12-31T02:33:56.201Z,73.58
2022-12-31T02:36:33.655Z,73.68
2022-12-31T02:39:08.835Z,73.67
2022-12-31T02:41:53.992Z,73.59
2022-12-31T02:44:28.750Z,73.53
2022-12-31T02:47:32.136Z,73.42
2022-12-31T02:50:21.527Z,73.38
2022-12-31T02:53:05.389Z,73.28
2022-12-31T02:55:47.184Z,73.19
2022-12-31T02:58:44.277Z,73.16
2022-12-31T03:01:39.116Z,73.17
2022-12-31T03:04:27.249Z,73.19
2022-12-31T03:07:01.334Z,73.04
2022-12-31T03:09:34.352Z,73.00
2022-12-31T03:12:26.898Z,73.04
2022-12-31T03:15:00.304Z,73.01
2022-12-31T03:17:32.823Z,72.97
2022-12-31T03:20:23.100Z,72.96
2022-12-31T03:22:55.593Z,72.87
2022-12-31T03:25:38.157Z,72.89
2022-12-31T03:28:14.102Z,72.94
2022-12-31T03:30:49.258Z,72.92
2022-12-31T03:33:22.181Z,72.89
2022-12-31T03:35:55.509Z,72.90
2022-12-31T03:38:28.092Z,72.82
2022-12-31T03:41:00.607Z,72.83
2022-12-31T03:43:33.172Z,72.74
2022-12-31T03:46:05.796Z,72.72
2022-12-31T03:48:40.066Z,72.61
2022-12-31T03:51:12.672Z,72.48
2022-12-31T03:53:45.169Z,72.43
2022-12-31T03:56:17.653Z,72.33
2022-12-31T03:58:50.166Z,72.26
2022-12-31T04:01:25.559Z,72.17
2022-12-31T04:03:58.155Z,72.22
2022-12-31T04:06:30.766Z,72.24
2022-12-31T04:09:03.257Z,72.26
2022-12-31T04:11:35.724Z,72.14
2022-12-31T04:14:08.819Z,72.04
2022-12-31T04:16:41.497Z,72.00
2022-12-31T04:19:14.368Z,71.93
2022-12-31T04:21:46.912Z,71.89
2022-12-31T04:24:19.470Z,71.87
2022-12-31T04:26:52.929Z,71.83
2022-12-31T04:29:25.719Z,71.93
2022-12-31T04:31:58.351Z,72.03
2022-12-31T04:34:30.910Z,72.17
2022-12-31T04:37:03.806Z,72.31
2022-12-31T04:39:37.522Z,72.39
2022-12-31T04:42:10.177Z,72.51
2022-12-31T04:44:42.647Z,72.67
2022-12-31T04:47:21.745Z,72.73
2022-12-31T04:49:56.085Z,72.83
2022-12-31T04:52:28.931Z,72.88
2022-12-31T04:55:01.508Z,72.83
2022-12-31T04:57:33.995Z,72.80
2022-12-31T05:00:08.087Z,72.84
2022-12-31T05:02:41.969Z,72.88
2022-12-31T05:05:15.784Z,72.94
2022-12-31T05:07:48.352Z,72.89
2022-12-31T05:10:20.955Z,72.89
2022-12-31T05:12:53.513Z,72.79
2022-12-31T05:15:26.087Z,72.81
2022-12-31T05:17:58.941Z,72.79
2022-12-31T05:20:32.120Z,72.77
2022-12-31T05:23:04.735Z,72.79
2022-12-31T05:25:38.588Z,72.82
2022-12-31T05:28:11.343Z,72.77
2022-12-31T05:30:44.227Z,72.74
2022-12-31T05:33:16.716Z,72.67
2022-12-31T05:35:49.279Z,72.66
2022-12-31T05:38:21.771Z,72.62
2022-12-31T05:41:02.431Z,72.54
2022-12-31T05:43:35.359Z,72.58
2022-12-31T05:46:08.266Z,72.60
2022-12-31T05:48:41.002Z,72.54
2022-12-31T05:51:13.844Z,72.55
2022-12-31T05:53:46.375Z,72.44
2022-12-31T05:56:20.648Z,72.36
2022-12-31T05:58:53.276Z,72.30
2022-12-31T06:01:25.911Z,72.22
2022-12-31T06:03:59.826Z,72.09
2022-12-31T06:06:32.639Z,71.98
2022-12-31T06:09:05.493Z,71.89
2022-12-31T06:11:37.968Z,71.74
2022-12-31T06:14:10.937Z,71.51
2022-12-31T06:16:45.026Z,71.39
2022-12-31T06:19:17.850Z,71.27
2022-12-31T06:21:50.344Z,71.21
2022-12-31T06:24:23.081Z,71.16
2022-12-31T06:26:55.663Z,71.02
2022-12-31T06:29:28.377Z,70.83
2022-12-31T06:32:03.247Z,70.68
2022-12-31T06:34:35.766Z,70.55
2022-12-31T06:37:08.561Z,70.48
2022-12-31T06:39:41.182Z,70.63
2022-12-31T06:42:14.355Z,70.67
2022-12-31T06:44:48.175Z,70.58
2022-12-31T06:47:20.986Z,70.55
2022-12-31T06:49:53.465Z,70.50
2022-12-31T06:52:26.074Z,70.51
2022-12-31T06:54:59.418Z,70.41
2022-12-31T06:57:32.870Z,70.44
2022-12-31T07:00:07.026Z,70.51
2022-12-31T07:03:11.143Z,70.57
2022-12-31T07:05:51.575Z,70.57
2022-12-31T07:08:51.197Z,70.64
2022-12-31T07:11:27.589Z,70.63
2022-12-31T07:14:09.921Z,70.65
2022-12-31T07:17:04.962Z,70.66
2022-12-31T07:19:57.172Z,70.34
2022-12-31T07:22:33.615Z,70.16
2022-12-31T07:25:08.359Z,69.80
2022-12-31T07:27:56.745Z,69.63
2022-12-31T07:30:37.408Z,69.51
2022-12-31T07:33:32.763Z,69.20
2022-12-31T07:36:19.081Z,69.05
2022-12-31T07:38:59.932Z,68.90
2022-12-31T07:41:44.376Z,68.88
2022-12-31T07:44:32.632Z,68.90
2022-12-31T07:47:17.204Z,68.78
2022-12-31T07:49:50.611Z,68.60
2022-12-31T07:52:24.892Z,68.42
2022-12-31T07:54:57.589Z,68.43
2022-12-31T07:57:42.331Z,68.47
2022-12-31T08:00:18.127Z,68.37
2022-12-31T08:03:13.039Z,68.08
2022-12-31T08:05:57.299Z,67.95
2022-12-31T08:08:43.181Z,67.72
2022-12-31T08:11:25.083Z,67.53
2022-12-31T08:14:02.073Z,67.35
2022-12-31T08:16:35.765Z,67.19
2022-12-31T08:19:16.907Z,66.93
2022-12-31T08:21:58.333Z,66.67
2022-12-31T08:24:41.698Z,66.28
2022-12-31T08:27:24.143Z,66.00
2022-12-31T08:30:03.960Z,65.63
2022-12-31T08:32:43.520Z,65.67
2022-12-31T08:35:26.272Z,65.53
2022-12-31T08:38:08.632Z,65.69
2022-12-31T08:41:02.149Z,65.64
2022-12-31T08:43:49.646Z,65.47
2022-12-31T08:46:27.937Z,65.12
2022-12-31T08:49:03.014Z,64.79
2022-12-31T08:51:36.518Z,64.33
2022-12-31T08:54:11.609Z,64.16
2022-12-31T08:56:51.453Z,63.85
2022-12-31T08:59:34.804Z,63.81
2022-12-31T09:02:24.969Z,63.76
2022-12-31T09:05:07.130Z,63.62
2022-12-31T09:07:42.706Z,64.16
2022-12-31T09:10:23.909Z,63.27
2022-12-31T09:13:04.358Z,62.59
2022-12-31T09:15:42.733Z,62.33
2022-12-31T09:18:14.679Z,62.41
2022-12-31T09:20:47.939Z,62.81
2022-12-31T09:23:22.751Z,62.33
2022-12-31T09:26:02.228Z,62.39
2022-12-31T09:28:44.209Z,62.30
2022-12-31T09:31:23.310Z,62.03
2022-12-31T09:34:03.969Z,62.03
2022-12-31T09:36:42.580Z,61.84
2022-12-31T09:39:24.278Z,61.77
2022-12-31T09:42:19.898Z,61.47
2022-12-31T09:45:20.819Z,61.45
2022-12-31T09:48:35.865Z,61.63
2022-12-31T09:51:28.522Z,61.36
2022-12-31T09:54:30.654Z,61.18
2022-12-31T09:57:38.962Z,60.87
2022-12-31T10:00:21.291Z,60.83
2022-12-31T10:03:09.274Z,60.57
2022-12-31T10:05:57.304Z,60.55
2022-12-31T10:08:49.271Z,60.70
2022-12-31T10:14:35.383Z,60.03
2022-12-31T10:17:19.595Z,60.37
2022-12-31T10:20:14.628Z,60.25
2022-12-31T10:23:03.449Z,59.41
2022-12-31T10:25:53.575Z,58.74
2022-12-31T10:28:40.853Z,59.92
2022-12-31T10:31:23.983Z,60.69
2022-12-31T10:34:14.273Z,61.52
2022-12-31T10:37:05.477Z,63.15
2022-12-31T10:39:52.047Z,64.21
2022-12-31T10:42:47.990Z,63.63
2022-12-31T10:45:47.865Z,62.82
2022-12-31T10:49:05.161Z,61.91
2022-12-31T10:52:07.469Z,61.91
2022-12-31T10:55:25.733Z,61.50
2022-12-31T10:58:27.060Z,61.03
2022-12-31T11:01:10.037Z,60.33
2022-12-31T11:04:21.227Z,58.97
2022-12-31T11:07:34.159Z,58.18
2022-12-31T11:10:58.380Z,59.31
2022-12-31T11:14:01.103Z,59.91
2022-12-31T11:17:13.809Z,60.97
2022-12-31T11:19:58.821Z,61.74
2022-12-31T11:22:58.038Z,64.06
2022-12-31T11:25:41.455Z,64.97
2022-12-31T11:28:32.622Z,63.93
2022-12-31T11:31:21.374Z,63.39
2022-12-31T11:34:11.862Z,63.13
2022-12-31T11:37:01.079Z,62.75
2022-12-31T11:39:46.177Z,62.47
2022-12-31T11:42:27.063Z,61.75
2022-12-31T11:45:04.023Z,61.33
2022-12-31T11:48:29.061Z,61.07
2022-12-31T11:50:59.418Z,60.87
2022-12-31T11:53:55.142Z,60.40
2022-12-31T11:56:33.737Z,58.98
2022-12-31T11:59:18.861Z,58.26
2022-12-31T12:02:00.036Z,59.06
2022-12-31T12:04:33.350Z,59.96
2022-12-31T12:07:11.939Z,60.94
2022-12-31T12:09:49.905Z,63.08
2022-12-31T12:12:22.969Z,64.34
2022-12-31T12:14:57.392Z,63.74
2022-12-31T12:17:34.567Z,63.06
2022-12-31T12:20:18.484Z,62.77
2022-12-31T12:22:57.627Z,62.48
2022-12-31T12:25:40.669Z,62.26
2022-12-31T12:28:23.760Z,61.84
2022-12-31T12:31:03.543Z,61.63
2022-12-31T12:33:46.875Z,61.33
2022-12-31T12:36:21.358Z,61.08
2022-12-31T12:39:04.969Z,60.91
2022-12-31T12:41:37.974Z,60.98
2022-12-31T12:44:17.276Z,60.98
2022-12-31T12:46:53.552Z,60.98
2022-12-31T12:49:28.618Z,60.85
2022-12-31T12:52:34.452Z,61.04
2022-12-31T12:55:22.110Z,61.13
2022-12-31T12:58:06.542Z,61.22
2022-12-31T13:00:44.921Z,61.31
2022-12-31T13:03:37.396Z,61.30
2022-12-31T13:06:29.466Z,61.45
2022-12-31T13:09:20.614Z,61.38
2022-12-31T13:12:07.773Z,61.48
2022-12-31T13:14:50.080Z,61.52
2022-12-31T13:17:41.081Z,61.71
2022-12-31T13:20:23.189Z,61.81
2022-12-31T13:23:06.806Z,61.79
2022-12-31T13:25:53.297Z,61.61
2022-12-31T13:28:26.211Z,61.69
2022-12-31T13:31:06.849Z,61.86
2022-12-31T13:33:45.618Z,62.03
2022-12-31T13:36:18.546Z,62.25
2022-12-31T13:38:54.417Z,62.44
2022-12-31T13:41:31.731Z,62.66
2022-12-31T13:44:13.468Z,62.79
2022-12-31T13:46:50.342Z,63.00
2022-12-31T13:49:28.539Z,63.20
2022-12-31T13:52:11.478Z,63.36
2022-12-31T13:54:53.395Z,63.64
2022-12-31T13:57:38.747Z,63.80
2022-12-31T14:00:24.284Z,63.89
2022-12-31T14:03:10.096Z,64.08
2022-12-31T14:05:50.293Z,64.43
2022-12-31T14:08:24.029Z,64.71
2022-12-31T14:11:06.402Z,64.88
2022-12-31T14:13:58.272Z,65.04
2022-12-31T14:16:43.900Z,65.16
2022-12-31T14:19:32.506Z,65.29
2022-12-31T14:22:21.793Z,65.50
2022-12-31T14:24:55.663Z,65.60
2022-12-31T14:27:32.594Z,65.64
2022-12-31T14:30:15.788Z,65.65
2022-12-31T14:33:05.540Z,65.81
2022-12-31T14:35:51.186Z,65.90
2022-12-31T14:38:38.247Z,66.09
2022-12-31T14:41:20.858Z,66.26
2022-12-31T14:44:04.785Z,66.35
2022-12-31T14:46:49.844Z,66.55
2022-12-31T14:49:42.553Z,66.59
2022-12-31T14:52:28.704Z,66.69
2022-12-31T14:55:24.500Z,67.07
2022-12-31T15:00:58.015Z,67.48
2022-12-31T15:03:44.693Z,67.64
2022-12-31T15:06:42.431Z,67.74
2022-12-31T15:09:53.835Z,67.91
2022-12-31T15:12:47.667Z,67.72
2022-12-31T15:15:35.171Z,68.03
2022-12-31T15:18:28.519Z,68.28
2022-12-31T15:21:30.027Z,68.20
2022-12-31T15:24:03.348Z,67.97
2022-12-31T15:26:36.392Z,67.94
2022-12-31T15:29:25.626Z,67.92
2022-12-31T15:32:02.147Z,68.12
2022-12-31T15:34:36.661Z,68.25
2022-12-31T15:37:31.372Z,68.32
2022-12-31T15:40:20.920Z,68.46
2022-12-31T15:42:59.565Z,68.43
2022-12-31T15:45:38.960Z,68.51
2022-12-31T15:48:16.848Z,68.49
2022-12-31T15:50:51.126Z,68.48
2022-12-31T15:53:30.947Z,68.56
2022-12-31T15:56:06.459Z,68.55
2022-12-31T15:58:39.806Z,68.63
2022-12-31T16:01:18.833Z,68.61
2022-12-31T16:03:56.121Z,68.72
2022-12-31T16:06:30.383Z,68.66
2022-12-31T16:09:03.182Z,68.59
2022-12-31T16:11:41.763Z,68.69
2022-12-31T16:14:26.318Z,68.71
2022-12-31T16:17:01.484Z,68.73
2022-12-31T16:19:37.376Z,68.83
2022-12-31T16:22:18.384Z,68.82
2022-12-31T16:25:29.013Z,68.92
2022-12-31T16:27:50.231Z,68.68
2022-12-31T16:30:29.664Z,68.71
2022-12-31T16:33:04.304Z,68.79
2022-12-31T16:35:38.090Z,68.71
2022-12-31T16:38:20.941Z,68.58
2022-12-31T16:41:17.725Z,68.40
2022-12-31T16:43:51.473Z,68.31
2022-12-31T16:46:27.299Z,68.19
2022-12-31T16:49:07.228Z,68.06
2022-12-31T16:51:41.093Z,68.11
2022-12-31T16:54:22.061Z,68.10
2022-12-31T16:56:55.169Z,68.10
2022-12-31T16:59:35.202Z,68.05
2022-12-31T17:02:16.260Z,68.07
2022-12-31T17:04:56.057Z,68.00
2022-12-31T17:07:41.699Z,68.03
2022-12-31T17:10:24.926Z,68.00
2022-12-31T17:15:53.697Z,67.99
2022-12-31T17:18:28.577Z,68.02
2022-12-31T17:21:09.958Z,68.01
2022-12-31T17:23:46.856Z,67.95
2022-12-31T17:26:27.983Z,67.93
2022-12-31T17:29:02.468Z,67.92
2022-12-31T17:31:41.569Z,67.84
2022-12-31T17:34:31.089Z,67.75
2022-12-31T17:37:19.941Z,67.67
2022-12-31T17:40:17.088Z,67.65
2022-12-31T17:42:51.647Z,67.69
2022-12-31T17:45:24.785Z,67.70
2022-12-31T17:48:01.168Z,67.69
2022-12-31T17:50:34.312Z,67.65
2022-12-31T17:53:13.819Z,67.61
2022-12-31T17:55:50.022Z,67.54
2022-12-31T17:58:29.795Z,67.45
2022-12-31T18:01:03.529Z,67.24
2022-12-31T18:03:38.013Z,67.15
2022-12-31T18:06:18.376Z,67.18
2022-12-31T18:08:53.025Z,67.04
2022-12-31T18:11:26.737Z,66.97
2022-12-31T18:13:59.576Z,66.90
2022-12-31T18:16:32.301Z,66.84
2022-12-31T18:19:23.500Z,66.79
2022-12-31T18:22:05.083Z,66.70
2022-12-31T18:24:48.325Z,66.70
2022-12-31T18:27:32.390Z,66.68
2022-12-31T18:30:07.115Z,66.73
2022-12-31T18:32:42.191Z,66.78
2022-12-31T18:35:57.569Z,66.85
2022-12-31T18:38:15.319Z,66.98
2022-12-31T18:40:56.094Z,67.08
2022-12-31T18:43:34.303Z,67.11
2022-12-31T18:46:11.229Z,67.16
2022-12-31T18:48:44.413Z,67.22
2022-12-31T18:51:19.846Z,67.30
2022-12-31T18:53:52.358Z,67.40
2022-12-31T18:56:27.876Z,67.49
2022-12-31T18:59:03.335Z,67.60
2022-12-31T19:01:38.355Z,67.60
2022-12-31T19:04:18.724Z,67.65
2022-12-31T19:06:54.729Z,67.71
2022-12-31T19:12:25.066Z,67.86
2022-12-31T19:14:57.583Z,67.88
2022-12-31T19:17:32.549Z,67.85
2022-12-31T19:20:05.660Z,67.94
2022-12-31T19:22:38.184Z,67.98
2022-12-31T19:25:21.268Z,67.98
2022-12-31T19:27:54.522Z,67.98
2022-12-31T19:30:29.003Z,67.92
2022-12-31T19:33:01.956Z,67.82
2022-12-31T19:35:34.550Z,67.89
2022-12-31T19:38:13.436Z,68.10
2022-12-31T19:40:46.598Z,68.10
2022-12-31T19:43:23.930Z,68.27
2022-12-31T19:45:57.168Z,68.40
2022-12-31T19:48:32.915Z,68.41
2022-12-31T19:51:09.805Z,68.30
2022-12-31T19:53:42.380Z,68.19
2022-12-31T19:56:20.024Z,68.17
2022-12-31T19:58:52.667Z,68.19
2022-12-31T20:01:26.567Z,68.14
2022-12-31T20:03:59.698Z,68.05
2022-12-31T20:06:32.283Z,68.03
2022-12-31T20:09:06.998Z,67.87
2022-12-31T20:11:39.755Z,67.77
2022-12-31T20:14:13.198Z,67.71
2022-12-31T20:16:45.881Z,67.66
2022-12-31T20:19:18.812Z,67.52
2022-12-31T20:21:51.418Z,67.43
2022-12-31T20:24:24.116Z,67.36
2022-12-31T20:26:56.650Z,67.29
2022-12-31T20:29:29.520Z,67.31
2022-12-31T20:32:02.190Z,67.30
2022-12-31T20:34:34.870Z,67.09
2022-12-31T20:37:07.814Z,67.04
2022-12-31T20:39:40.411Z,67.22
2022-12-31T20:42:12.952Z,67.40
2022-12-31T20:44:45.526Z,67.51
2022-12-31T20:47:18.478Z,67.54
2022-12-31T20:50:10.906Z,67.58
2022-12-31T20:52:45.638Z,67.60
2022-12-31T20:55:19.227Z,67.58
2022-12-31T20:57:53.869Z,67.57
2022-12-31T21:00:26.541Z,67.53
2022-12-31T21:03:10.487Z,67.52
2022-12-31T21:05:53.962Z,67.61
2022-12-31T21:08:31.131Z,67.70
2022-12-31T21:11:29.697Z,67.69
2022-12-31T21:14:03.054Z,67.67
2022-12-31T21:16:35.979Z,67.63
2022-12-31T21:19:12.678Z,67.67
2022-12-31T21:21:45.215Z,67.63
2022-12-31T21:24:23.529Z,67.51
2022-12-31T21:26:57.872Z,67.49
2022-12-31T21:29:34.539Z,67.51
2022-12-31T21:32:08.337Z,67.61
2022-12-31T21:34:42.221Z,67.67
2022-12-31T21:37:16.998Z,67.74
2022-12-31T21:39:49.484Z,67.82
2022-12-31T21:42:22.077Z,67.76
2022-12-31T21:44:54.637Z,67.83
2022-12-31T21:47:47.592Z,68.00
2022-12-31T21:50:20.981Z,68.18
2022-12-31T21:52:53.496Z,68.25
2022-12-31T21:55:43.344Z,68.24
2022-12-31T21:58:27.267Z,68.31
2022-12-31T22:01:18.764Z,68.48
2022-12-31T22:03:51.470Z,68.60
2022-12-31T22:06:26.021Z,68.70
2022-12-31T22:08:59.001Z,68.87
2022-12-31T22:11:31.669Z,68.86
2022-12-31T22:14:06.661Z,68.89
2022-12-31T22:16:39.650Z,68.92
2022-12-31T22:19:13.866Z,68.87
2022-12-31T22:21:46.386Z,69.00
2022-12-31T22:24:20.213Z,69.07
2022-12-31T22:26:55.708Z,69.04
2022-12-31T22:29:29.176Z,69.23
2022-12-31T22:32:01.800Z,69.40
2022-12-31T22:34:34.317Z,69.44
2022-12-31T22:37:27.485Z,69.46
2022-12-31T22:40:03.104Z,69.30
2022-12-31T22:42:36.253Z,69.28
2022-12-31T22:45:10.979Z,69.26
2022-12-31T22:47:43.550Z,69.44
2022-12-31T22:50:16.479Z,69.57
2022-12-31T22:52:48.973Z,69.39
2022-12-31T22:55:21.655Z,69.25
2022-12-31T22:57:54.451Z,69.35
2022-12-31T23:00:38.756Z,69.30
2022-12-31T23:03:11.497Z,69.31
2022-12-31T23:05:44.290Z,69.35
2022-12-31T23:08:23.133Z,69.22
2022-12-31T23:11:05.749Z,69.14
2022-12-31T23:14:01.603Z,69.20
2022-12-31T23:16:52.075Z,69.59
2022-12-31T23:19:42.017Z,69.56
2022-12-31T23:22:31.652Z,70.23
2022-12-31T23:25:04.211Z,69.84
2022-12-31T23:27:36.814Z,68.71
2022-12-31T23:30:13.025Z,67.23
2022-12-31T23:32:45.567Z,66.26
2022-12-31T23:35:18.210Z,64.32
2022-12-31T23:37:51.025Z,63.24
2022-12-31T23:40:23.725Z,61.76
2022-12-31T23:42:56.967Z,60.79
2022-12-31T23:45:33.041Z,60.36
2022-12-31T23:48:06.613Z,60.17
2022-12-31T23:50:41.316Z,61.42
2022-12-31T23:53:14.251Z,62.24
2022-12-31T23:55:46.782Z,60.93
2022-12-31T23:58:19.414Z,62.57
